createdAt,value
2022-10-01T00:02:07.997Z,14.17
2022-10-01T00:04:37.329Z,14.08
2022-10-01T00:07:09.634Z,13.94
2022-10-01T00:09:38.052Z,13.97
2022-10-01T00:12:10.375Z,13.98
2022-10-01T00:14:39.641Z,14.04
2022-10-01T00:17:07.196Z,14.02
2022-10-01T00:19:35.371Z,13.86
2022-10-01T00:22:04.813Z,14.05
2022-10-01T00:24:32.413Z,13.85
2022-10-01T00:27:00.845Z,13.88
2022-10-01T00:29:29.253Z,13.93
2022-10-01T00:31:59.221Z,13.88
2022-10-01T00:34:30.135Z,13.87
2022-10-01T00:36:57.678Z,13.87
2022-10-01T00:39:25.390Z,13.90
2022-10-01T00:41:54.867Z,13.97
2022-10-01T00:44:36.985Z,13.93
2022-10-01T00:47:28.492Z,14.06
2022-10-01T00:49:59.606Z,14.07
2022-10-01T00:52:32.404Z,13.88
2022-10-01T00:55:08.647Z,13.98
2022-10-01T00:57:36.029Z,13.82
2022-10-01T01:00:07.645Z,13.87
2022-10-01T01:02:36.204Z,14.00
2022-10-01T01:05:05.784Z,14.00
2022-10-01T01:07:34.419Z,13.94
2022-10-01T01:10:03.109Z,13.87
2022-10-01T01:12:52.120Z,14.02
2022-10-01T01:15:40.605Z,13.96
2022-10-01T01:18:14.089Z,13.93
2022-10-01T01:21:02.823Z,13.71
2022-10-01T01:23:36.211Z,13.87
2022-10-01T01:26:12.178Z,13.84
2022-10-01T01:28:44.691Z,13.80
2022-10-01T01:31:18.515Z,13.73
2022-10-01T01:33:51.176Z,13.71
2022-10-01T01:36:23.411Z,13.66
2022-10-01T01:38:56.045Z,13.72
2022-10-01T01:41:28.466Z,13.54
2022-10-01T01:44:00.743Z,13.66
2022-10-01T01:46:34.116Z,13.56
2022-10-01T01:49:04.599Z,13.42
2022-10-01T01:51:39.844Z,13.64
2022-10-01T01:54:08.551Z,13.36
2022-10-01T01:56:36.390Z,13.49
2022-10-01T01:59:03.896Z,13.36
2022-10-01T02:01:41.947Z,13.41
2022-10-01T02:04:32.252Z,13.55
2022-10-01T02:07:20.895Z,13.51
2022-10-01T02:10:03.203Z,13.38
2022-10-01T02:12:46.463Z,13.59
2022-10-01T02:15:37.420Z,13.43
2022-10-01T02:18:20.401Z,13.58
2022-10-01T02:20:59.372Z,13.52
2022-10-01T02:23:31.583Z,13.23
2022-10-01T02:26:09.241Z,13.37
2022-10-01T02:28:39.827Z,13.21
2022-10-01T02:31:08.291Z,13.49
2022-10-01T02:33:36.942Z,13.28
2022-10-01T02:36:08.064Z,13.41
2022-10-01T02:38:38.162Z,13.33
2022-10-01T02:41:10.602Z,13.32
2022-10-01T02:43:45.251Z,13.34
2022-10-01T02:46:35.896Z,13.37
2022-10-01T02:49:04.687Z,13.38
2022-10-01T02:51:51.520Z,13.32
2022-10-01T02:54:43.823Z,13.58
2022-10-01T02:57:27.070Z,13.32
2022-10-01T03:00:04.843Z,13.34
2022-10-01T03:02:33.487Z,13.54
2022-10-01T03:05:01.397Z,13.49
2022-10-01T03:07:30.920Z,13.54
2022-10-01T03:09:58.521Z,13.52
2022-10-01T03:12:26.295Z,13.40
2022-10-01T03:14:53.925Z,13.36
2022-10-01T03:17:23.450Z,13.53
2022-10-01T03:19:50.711Z,13.34
2022-10-01T03:22:22.911Z,13.43
2022-10-01T03:24:51.461Z,13.47
2022-10-01T03:27:21.321Z,13.32
2022-10-01T03:29:49.682Z,13.54
2022-10-01T03:32:18.385Z,13.34
2022-10-01T03:34:45.574Z,13.20
2022-10-01T03:37:13.410Z,13.28
2022-10-01T03:39:40.845Z,13.34
2022-10-01T03:42:10.303Z,13.37
2022-10-01T03:44:37.756Z,13.35
2022-10-01T03:47:06.742Z,13.54
2022-10-01T03:49:37.074Z,13.29
2022-10-01T03:52:05.606Z,13.39
2022-10-01T03:54:33.180Z,13.47
2022-10-01T03:57:00.618Z,13.42
2022-10-01T03:59:27.788Z,13.34
2022-10-01T04:01:58.320Z,13.44
2022-10-01T04:04:26.100Z,13.49
2022-10-01T04:06:53.329Z,13.37
2022-10-01T04:09:20.555Z,13.39
2022-10-01T04:11:48.776Z,13.35
2022-10-01T04:14:16.056Z,13.36
2022-10-01T04:16:43.853Z,13.36
2022-10-01T04:19:11.126Z,13.45
2022-10-01T04:21:39.447Z,13.36
2022-10-01T04:24:06.888Z,13.37
2022-10-01T04:26:34.454Z,13.28
2022-10-01T04:29:01.670Z,13.46
2022-10-01T04:31:35.247Z,13.41
2022-10-01T04:34:03.583Z,13.29
2022-10-01T04:36:31.420Z,13.45
2022-10-01T04:39:02.078Z,13.45
2022-10-01T04:41:31.648Z,13.49
2022-10-01T04:44:00.304Z,13.51
2022-10-01T04:46:31.550Z,13.40
2022-10-01T04:48:58.986Z,13.42
2022-10-01T04:51:26.560Z,13.39
2022-10-01T04:53:54.898Z,13.53
2022-10-01T04:56:22.239Z,13.28
2022-10-01T04:58:49.429Z,13.37
2022-10-01T05:01:19.802Z,13.35
2022-10-01T05:03:47.770Z,13.47
2022-10-01T05:06:15.030Z,13.28
2022-10-01T05:08:42.283Z,13.31
2022-10-01T05:11:09.668Z,13.27
2022-10-01T05:13:37.190Z,13.26
2022-10-01T05:16:04.716Z,13.24
2022-10-01T05:18:32.831Z,13.35
2022-10-01T05:21:11.786Z,13.13
2022-10-01T05:23:42.213Z,13.22
2022-10-01T05:26:09.732Z,12.99
2022-10-01T05:28:36.963Z,13.07
2022-10-01T05:31:05.339Z,13.03
2022-10-01T05:33:34.983Z,12.97
2022-10-01T05:36:05.517Z,13.06
2022-10-01T05:38:36.735Z,12.99
2022-10-01T05:41:05.457Z,13.03
2022-10-01T05:43:33.005Z,12.97
2022-10-01T05:46:02.763Z,12.84
2022-10-01T05:48:34.563Z,12.86
2022-10-01T05:51:08.512Z,12.99
2022-10-01T05:53:38.537Z,13.03
2022-10-01T05:56:07.275Z,12.91
2022-10-01T05:58:35.740Z,13.02
2022-10-01T06:01:04.516Z,13.05
2022-10-01T06:03:31.957Z,13.15
2022-10-01T06:06:00.992Z,13.26
2022-10-01T06:08:28.954Z,13.05
2022-10-01T06:11:01.930Z,13.19
2022-10-01T06:13:29.564Z,13.26
2022-10-01T06:15:56.966Z,13.12
2022-10-01T06:18:24.376Z,13.30
2022-10-01T06:20:52.886Z,13.34
2022-10-01T06:23:20.330Z,13.26
2022-10-01T06:25:47.627Z,13.26
2022-10-01T06:28:15.602Z,13.17
2022-10-01T06:30:43.920Z,13.46
2022-10-01T06:33:16.929Z,13.52
2022-10-01T06:35:48.398Z,13.50
2022-10-01T06:38:16.885Z,13.50
2022-10-01T06:40:44.598Z,13.63
2022-10-01T06:43:14.450Z,13.74
2022-10-01T06:45:42.858Z,13.81
2022-10-01T06:48:14.845Z,14.00
2022-10-01T06:50:45.362Z,13.82
2022-10-01T06:53:18.663Z,13.88
2022-10-01T06:55:50.146Z,13.75
2022-10-01T06:58:23.262Z,13.84
2022-10-01T07:00:51.175Z,13.51
2022-10-01T07:03:21.060Z,13.61
2022-10-01T07:05:50.393Z,13.81
2022-10-01T07:08:18.266Z,13.61
2022-10-01T07:10:46.769Z,13.74
2022-10-01T07:13:18.808Z,13.86
2022-10-01T07:15:46.728Z,13.91
2022-10-01T07:18:14.524Z,13.93
2022-10-01T07:20:43.930Z,13.90
2022-10-01T07:23:13.174Z,13.95
2022-10-01T07:25:41.636Z,13.76
2022-10-01T07:28:16.766Z,13.85
2022-10-01T07:31:00.660Z,13.76
2022-10-01T07:33:28.585Z,13.83
2022-10-01T07:35:56.319Z,13.81
2022-10-01T07:38:23.592Z,13.85
2022-10-01T07:40:52.635Z,13.83
2022-10-01T07:43:19.952Z,13.85
2022-10-01T07:45:55.375Z,13.72
2022-10-01T07:48:22.981Z,13.75
2022-10-01T07:51:15.437Z,13.92
2022-10-01T07:53:42.915Z,13.86
2022-10-01T07:56:11.533Z,13.88
2022-10-01T07:58:38.916Z,13.74
2022-10-01T08:01:08.413Z,14.02
2022-10-01T08:03:38.296Z,13.93
2022-10-01T08:06:09.704Z,13.91
2022-10-01T08:08:37.137Z,13.95
2022-10-01T08:11:10.299Z,13.80
2022-10-01T08:13:37.783Z,14.07
2022-10-01T08:16:07.590Z,13.80
2022-10-01T08:18:35.154Z,13.92
2022-10-01T08:21:04.510Z,13.92
2022-10-01T08:23:35.002Z,13.95
2022-10-01T08:26:06.194Z,13.94
2022-10-01T08:28:34.790Z,14.21
2022-10-01T08:31:12.106Z,14.22
2022-10-01T08:33:39.764Z,14.13
2022-10-01T08:36:10.426Z,14.35
2022-10-01T08:38:38.138Z,14.21
2022-10-01T08:41:35.337Z,14.21
2022-10-01T08:44:06.389Z,14.31
2022-10-01T08:46:37.499Z,14.26
2022-10-01T08:49:23.871Z,14.51
2022-10-01T08:52:03.825Z,14.28
2022-10-01T08:54:46.902Z,14.56
2022-10-01T08:57:19.806Z,14.47
2022-10-01T08:59:56.067Z,14.43
2022-10-01T09:02:25.476Z,14.33
2022-10-01T09:05:21.482Z,14.49
2022-10-01T09:08:10.565Z,14.44
2022-10-01T09:10:44.088Z,14.55
2022-10-01T09:13:22.895Z,14.41
2022-10-01T09:16:05.637Z,14.48
2022-10-01T09:18:48.957Z,14.41
2022-10-01T09:21:24.892Z,14.37
2022-10-01T09:24:04.485Z,14.35
2022-10-01T09:26:32.213Z,14.19
2022-10-01T09:29:03.300Z,14.24
2022-10-01T09:31:49.952Z,14.26
2022-10-01T09:34:37.721Z,14.46
2022-10-01T09:37:33.556Z,14.41
2022-10-01T09:40:57.303Z,14.24
2022-10-01T09:43:30.434Z,14.41
2022-10-01T09:45:58.480Z,14.43
2022-10-01T09:48:29.909Z,14.54
2022-10-01T09:51:11.046Z,14.71
2022-10-01T09:53:47.016Z,14.66
2022-10-01T09:56:31.336Z,14.55
2022-10-01T09:59:05.523Z,14.68
2022-10-01T10:01:50.387Z,14.64
2022-10-01T10:04:25.375Z,14.68
2022-10-01T10:07:01.350Z,14.91
2022-10-01T10:09:32.174Z,14.76
2022-10-01T10:12:00.384Z,14.87
2022-10-01T10:14:34.243Z,14.74
2022-10-01T10:17:12.738Z,14.86
2022-10-01T10:19:41.721Z,14.79
2022-10-01T10:22:25.040Z,14.81
2022-10-01T10:24:53.852Z,15.02
2022-10-01T10:27:27.905Z,14.95
2022-10-01T10:30:29.171Z,14.88
2022-10-01T10:33:05.379Z,14.85
2022-10-01T10:35:32.829Z,14.99
2022-10-01T10:38:00.374Z,14.94
2022-10-01T10:40:32.949Z,15.05
2022-10-01T10:43:05.762Z,14.87
2022-10-01T10:45:38.427Z,14.91
2022-10-01T10:48:12.064Z,14.92
2022-10-01T10:50:43.665Z,14.89
2022-10-01T10:53:33.673Z,14.92
2022-10-01T10:56:06.607Z,14.71
2022-10-01T10:58:39.938Z,14.75
2022-10-01T11:01:19.820Z,14.74
2022-10-01T11:03:50.358Z,14.83
2022-10-01T11:06:18.901Z,14.78
2022-10-01T11:08:57.288Z,14.74
2022-10-01T11:11:42.031Z,14.98
2022-10-01T11:14:22.809Z,15.05
2022-10-01T11:17:05.146Z,15.05
2022-10-01T11:20:25.616Z,15.03
2022-10-01T11:23:05.000Z,15.08
2022-10-01T11:26:15.001Z,14.99
2022-10-01T11:29:06.594Z,14.91
2022-10-01T11:32:05.660Z,15.04
2022-10-01T11:34:52.054Z,14.82
2022-10-01T11:37:44.294Z,15.04
2022-10-01T11:40:28.252Z,15.04
2022-10-01T11:43:01.567Z,14.92
2022-10-01T11:45:36.898Z,14.93
2022-10-01T11:48:15.812Z,15.11
2022-10-01T11:50:49.239Z,15.08
2022-10-01T11:53:31.097Z,15.13
2022-10-01T11:56:21.226Z,15.18
2022-10-01T11:58:54.901Z,15.47
2022-10-01T12:01:46.220Z,15.45
2022-10-01T12:04:38.116Z,15.60
2022-10-01T12:07:22.045Z,15.60
2022-10-01T12:09:55.560Z,15.53
2022-10-01T12:12:31.335Z,15.49
2022-10-01T12:15:10.198Z,15.23
2022-10-01T12:17:47.035Z,15.41
2022-10-01T12:20:46.929Z,15.26
2022-10-01T12:23:24.819Z,15.17
2022-10-01T12:26:04.866Z,15.28
2022-10-01T12:28:32.674Z,15.26
2022-10-01T12:31:49.769Z,15.15
2022-10-01T12:34:57.044Z,15.24
2022-10-01T12:37:40.807Z,15.36
2022-10-01T12:40:30.809Z,15.22
2022-10-01T12:43:08.695Z,15.25
2022-10-01T12:46:05.145Z,15.32
2022-10-01T12:48:55.474Z,15.32
2022-10-01T12:51:27.014Z,15.40
2022-10-01T12:54:18.586Z,15.51
2022-10-01T12:57:10.866Z,15.52
2022-10-01T12:59:44.669Z,15.56
2022-10-01T13:02:31.484Z,15.51
2022-10-01T13:04:58.811Z,15.39
2022-10-01T13:07:47.075Z,15.35
2022-10-01T13:10:59.065Z,15.12
2022-10-01T13:13:34.268Z,15.22
2022-10-01T13:16:40.421Z,15.52
2022-10-01T13:19:25.163Z,15.87
2022-10-01T13:22:27.639Z,16.03
2022-10-01T13:25:06.866Z,15.97
2022-10-01T13:27:50.569Z,16.23
2022-10-01T13:30:23.233Z,16.33
2022-10-01T13:33:01.263Z,16.26
2022-10-01T13:35:32.899Z,16.42
2022-10-01T13:38:14.861Z,16.53
2022-10-01T13:40:42.840Z,16.79
2022-10-01T13:43:23.121Z,16.84
2022-10-01T13:45:53.779Z,16.67
2022-10-01T13:48:31.848Z,16.77
2022-10-01T13:51:05.268Z,16.72
2022-10-01T13:53:41.841Z,16.68
2022-10-01T13:56:15.722Z,16.46
2022-10-01T13:58:45.186Z,16.49
2022-10-01T14:01:23.641Z,16.73
2022-10-01T14:04:21.731Z,17.03
2022-10-01T14:06:57.714Z,17.15
2022-10-01T14:09:32.198Z,17.09
2022-10-01T14:13:00.565Z,17.63
2022-10-01T14:16:49.215Z,17.52
2022-10-01T14:20:04.429Z,17.78
2022-10-01T14:25:02.603Z,18.18
2022-10-01T14:31:36.561Z,18.01
2022-10-01T14:34:31.957Z,17.99
2022-10-01T14:37:36.083Z,17.65
2022-10-01T14:40:49.020Z,17.62
2022-10-01T14:43:34.365Z,17.44
2022-10-01T14:46:53.361Z,17.24
2022-10-01T14:49:43.554Z,17.30
2022-10-01T14:52:41.542Z,17.26
2022-10-01T14:58:13.671Z,16.90
2022-10-01T15:07:35.873Z,16.48
2022-10-01T15:13:34.186Z,16.67
2022-10-01T15:19:35.880Z,16.43
2022-10-01T15:23:57.496Z,16.33
2022-10-01T15:26:33.420Z,16.45
2022-10-01T15:29:20.749Z,16.13
2022-10-01T15:32:25.653Z,16.07
2022-10-01T15:35:37.703Z,16.11
2022-10-01T15:38:22.214Z,16.05
2022-10-01T15:41:13.987Z,15.90
2022-10-01T15:43:50.925Z,15.74
2022-10-01T15:46:36.986Z,15.81
2022-10-01T15:49:29.615Z,15.73
2022-10-01T15:53:09.442Z,15.85
2022-10-01T15:56:17.660Z,15.80
2022-10-01T16:02:36.155Z,15.53
2022-10-01T16:05:51.292Z,15.69
2022-10-01T16:09:40.964Z,15.74
2022-10-01T16:12:24.141Z,15.78
2022-10-01T16:15:08.498Z,15.78
2022-10-01T16:18:03.081Z,15.60
2022-10-01T16:20:35.392Z,15.65
2022-10-01T16:23:41.277Z,15.91
2022-10-01T16:26:28.794Z,15.84
2022-10-01T16:29:09.276Z,15.72
2022-10-01T16:32:25.656Z,15.73
2022-10-01T16:35:43.788Z,15.48
2022-10-01T16:38:36.233Z,15.57
2022-10-01T16:42:22.208Z,15.64
2022-10-01T16:45:15.203Z,15.37
2022-10-01T16:48:07.962Z,15.57
2022-10-01T16:50:59.602Z,15.73
2022-10-01T16:53:28.152Z,15.63
2022-10-01T16:56:24.825Z,15.54
2022-10-01T16:59:02.996Z,15.51
2022-10-01T17:01:41.730Z,15.61
2022-10-01T17:04:18.630Z,15.59
2022-10-01T17:07:17.154Z,15.82
2022-10-01T17:09:56.138Z,15.75
2022-10-01T17:12:23.866Z,15.76
2022-10-01T17:14:54.172Z,15.57
2022-10-01T17:17:41.232Z,15.54
2022-10-01T17:20:11.521Z,15.69
2022-10-01T17:27:25.942Z,15.54
2022-10-01T17:29:58.028Z,15.38
2022-10-01T17:32:33.033Z,15.42
2022-10-01T17:35:11.436Z,15.53
2022-10-01T17:37:39.239Z,15.33
2022-10-01T17:40:07.758Z,15.49
2022-10-01T17:42:36.358Z,15.44
2022-10-01T17:45:07.317Z,15.46
2022-10-01T17:47:34.621Z,15.28
2022-10-01T17:50:03.100Z,15.34
2022-10-01T17:52:32.264Z,15.37
2022-10-01T17:54:59.483Z,15.37
2022-10-01T17:57:26.632Z,15.39
2022-10-01T17:59:53.679Z,15.28
2022-10-01T18:02:41.065Z,15.37
2022-10-01T18:05:09.864Z,15.34
2022-10-01T18:07:37.357Z,15.39
2022-10-01T18:10:06.171Z,15.29
2022-10-01T18:12:34.437Z,15.28
2022-10-01T18:15:03.310Z,15.30
2022-10-01T18:17:33.022Z,15.26
2022-10-01T18:20:00.556Z,15.14
2022-10-01T18:22:29.165Z,15.20
2022-10-01T18:24:56.335Z,15.20
2022-10-01T18:27:23.369Z,15.16
2022-10-01T18:29:50.471Z,15.15
2022-10-01T18:32:27.299Z,15.19
2022-10-01T18:34:59.850Z,15.26
2022-10-01T18:37:53.667Z,15.17
2022-10-01T18:40:27.511Z,15.15
2022-10-01T18:43:20.756Z,15.05
2022-10-01T18:46:15.530Z,15.03
2022-10-01T18:48:49.663Z,14.92
2022-10-01T18:51:55.742Z,14.87
2022-10-01T18:54:57.255Z,14.84
2022-10-01T18:58:05.906Z,14.73
2022-10-01T19:01:06.793Z,14.54
2022-10-01T19:04:00.465Z,14.44
2022-10-01T19:06:34.057Z,14.47
2022-10-01T19:09:19.404Z,14.46
2022-10-01T19:12:02.497Z,14.42
2022-10-01T19:14:44.886Z,14.39
2022-10-01T19:17:37.611Z,14.38
2022-10-01T19:20:25.310Z,14.43
2022-10-01T19:23:02.727Z,14.30
2022-10-01T19:25:50.364Z,14.35
2022-10-01T19:28:52.662Z,14.38
2022-10-01T19:31:30.313Z,14.39
2022-10-01T19:34:05.434Z,14.14
2022-10-01T19:36:37.505Z,14.03
2022-10-01T19:39:11.044Z,14.11
2022-10-01T19:42:22.869Z,14.23
2022-10-01T19:45:02.272Z,14.13
2022-10-01T19:47:36.898Z,14.04
2022-10-01T19:50:21.828Z,13.86
2022-10-01T19:53:26.012Z,13.91
2022-10-01T19:55:54.574Z,13.78
2022-10-01T19:58:23.629Z,13.80
2022-10-01T20:01:43.050Z,13.80
2022-10-01T20:04:21.460Z,13.75
2022-10-01T20:06:48.584Z,13.70
2022-10-01T20:09:27.222Z,13.70
2022-10-01T20:12:11.429Z,13.67
2022-10-01T20:15:09.355Z,13.65
2022-10-01T20:17:51.791Z,13.60
2022-10-01T20:20:47.606Z,13.55
2022-10-01T20:23:42.182Z,13.58
2022-10-01T20:26:55.577Z,13.56
2022-10-01T20:29:50.452Z,13.55
2022-10-01T20:32:17.513Z,13.55
2022-10-01T20:35:15.579Z,13.56
2022-10-01T20:38:13.956Z,13.52
2022-10-01T20:40:49.608Z,13.61
2022-10-01T20:43:46.272Z,13.61
2022-10-01T20:46:40.735Z,13.63
2022-10-01T20:49:12.093Z,13.62
2022-10-01T20:52:09.774Z,13.65
2022-10-01T20:54:41.611Z,13.67
2022-10-01T20:57:20.944Z,13.70
2022-10-01T20:59:53.512Z,13.53
2022-10-01T21:03:12.525Z,13.74
2022-10-01T21:06:16.849Z,13.73
2022-10-01T21:09:19.215Z,13.73
2022-10-01T21:11:51.375Z,13.74
2022-10-01T21:14:33.641Z,13.62
2022-10-01T21:17:21.564Z,13.77
2022-10-01T21:19:58.062Z,13.77
2022-10-01T21:23:14.474Z,13.77
2022-10-01T21:26:00.264Z,13.76
2022-10-01T21:28:36.713Z,13.81
2022-10-01T21:31:27.278Z,13.82
2022-10-01T21:34:11.912Z,13.77
2022-10-01T21:36:52.481Z,13.79
2022-10-01T21:39:34.018Z,13.74
2022-10-01T21:42:21.293Z,13.93
2022-10-01T21:45:17.116Z,13.81
2022-10-01T21:48:31.145Z,13.95
2022-10-01T21:51:14.388Z,13.94
2022-10-01T21:54:11.163Z,13.94
2022-10-01T21:56:47.563Z,13.96
2022-10-01T21:59:42.653Z,13.98
2022-10-01T22:02:26.842Z,13.98
2022-10-01T22:04:58.813Z,13.81
2022-10-01T22:07:35.653Z,13.99
2022-10-01T22:10:17.279Z,13.95
2022-10-01T22:12:51.411Z,13.95
2022-10-01T22:15:24.502Z,13.91
2022-10-01T22:17:54.827Z,13.83
2022-10-01T22:20:27.642Z,13.91
2022-10-01T22:23:01.643Z,13.92
2022-10-01T22:25:30.333Z,13.93
2022-10-01T22:28:15.059Z,13.82
2022-10-01T22:30:43.862Z,13.92
2022-10-01T22:33:22.476Z,13.85
2022-10-01T22:36:14.818Z,13.87
2022-10-01T22:38:56.094Z,13.81
2022-10-01T22:41:43.382Z,13.84
2022-10-01T22:44:19.843Z,13.83
2022-10-01T22:47:06.220Z,13.80
2022-10-01T22:49:45.103Z,13.75
2022-10-01T22:52:33.178Z,13.62
2022-10-01T22:55:24.904Z,13.71
2022-10-01T22:58:20.221Z,13.65
2022-10-01T23:01:03.147Z,13.60
2022-10-01T23:03:36.436Z,13.51
2022-10-01T23:06:30.814Z,13.36
2022-10-01T23:09:53.242Z,13.39
2022-10-01T23:12:34.733Z,13.32
2022-10-01T23:15:20.402Z,13.09
2022-10-01T23:18:13.805Z,13.14
2022-10-01T23:20:57.215Z,13.10
2022-10-01T23:23:32.273Z,13.12
2022-10-01T23:26:15.912Z,13.09
2022-10-01T23:29:07.420Z,13.06
2022-10-01T23:31:49.385Z,12.89
2022-10-01T23:34:30.857Z,12.92
2022-10-01T23:37:22.838Z,12.97
2022-10-01T23:39:55.593Z,12.94
2022-10-01T23:42:29.193Z,12.77
2022-10-01T23:45:34.677Z,12.91
2022-10-01T23:48:30.341Z,12.77
2022-10-01T23:51:21.702Z,12.86
2022-10-01T23:54:18.247Z,12.83
2022-10-01T23:56:53.290Z,12.78
2022-10-01T23:59:42.940Z,12.67
